マガダン の空港の天気 - METARとTAF

マガダン・ソコル空港 ( UHMM / GDX ) - ロシア マガダン
飛行場実況気象(Metar)
観測時間09/23 11:00 MAGT (09/23 00:00 UTC)
風向・風速南東 1m/s
視程10km以上
天気現象
なし
気温9℃
湿度62%
気圧1021hPa
METARUHMM 230000Z 13001MPS 9999 NSC 09/02 Q1021 R10/70D NOSIG RMK QFE751 R28/24001MPS
過去の天気等 Google飛行場航空写真 Wunderground天気予報

過去48時間のMETAR

飛行場予報(TAF)
発表時間: 9/23 09:50 MAGT (9/22 22:50 UTC)
予報対象時間: 23日11時 MAGT ~ 24日17時 MAGT
風向・風速西北西 3m/s
視程10km以上
なし
TAF UHMM 222250Z 2300/2406 30003MPS 9999 NSC